Time;durP1;ratioP1;P1;durP2;ratioP2;P2;SDS_P1;SDS_P2;PMS_P1;PMS_P2;Temp;Humidity;BMP_temperature;BMP_pressure;BME280_temperature;BME280_humidity;BME280_pressure;Samples;Min_cycle;Max_cycle;Signal;HPM_P1;HPM_P2
2024/04/02 02:38:08;;;;;;;0.20;0.20;;;;;;;13.15;100.00;75224.84;6058880;23;20026;-82
2024/04/02 06:04:06;;;;;;;0.20;0.20;;;;;;;18.58;64.57;75861.25;5156418;23;20120;-87
2024/04/02 06:13:15;;;;;;;0.20;0.20;;;;;;;19.97;59.95;76022.53;4997184;28;20413;-90
2024/04/02 06:15:41;;;;;;;0.20;0.20;;;;;;;19.86;59.04;76012.72;4977701;28;20034;-90
2024/04/02 06:18:07;;;;;;;0.20;0.20;;;;;;;19.44;60.01;75959.41;4977538;28;20417;-91
2024/04/02 06:20:32;;;;;;;0.20;0.20;;;;;;;20.01;59.18;76023.94;4977483;28;20023;-91
2024/04/02 06:22:57;;;;;;;0.20;0.20;;;;;;;19.79;59.09;75998.09;4977658;28;20089;-90
2024/04/02 06:25:23;;;;;;;0.20;0.20;;;;;;;17.88;66.71;75778.41;4977273;28;20030;-90
2024/04/02 06:36:26;;;;;;;;;;;;;;;17.43;70.31;75719.97;5008296;23;20055;-89
2024/04/02 06:53:34;;;;;;;0.20;0.20;;;;;;;19.79;58.19;76000.91;4995673;28;20073;-87
2024/04/02 06:55:59;;;;;;;0.20;0.20;;;;;;;19.70;56.42;75993.47;4976791;28;20478;-89
2024/04/02 06:58:24;;;;;;;0.20;0.20;;;;;;;20.47;53.29;76080.88;4977008;28;20037;-91
2024/04/02 07:00:51;;;;;;;0.20;0.20;;;;;;;20.20;54.88;76046.78;4972208;28;20027;-91
2024/04/02 07:03:18;;;;;;;0.20;0.20;;;;;;;20.77;52.41;76116.34;4957472;28;20035;-91
2024/04/02 07:05:45;;;;;;;0.20;0.20;;;;;;;19.62;52.31;75981.06;4974672;28;20062;-91
2024/04/02 07:08:11;;;;;;;0.20;0.20;;;;;;;20.54;52.52;76092.09;4958990;28;20031;-92
2024/04/02 07:10:39;;;;;;;0.20;0.20;;;;;;;21.79;49.94;76237.28;4977309;28;20077;-89
2024/04/02 07:13:04;;;;;;;0.20;0.20;;;;;;;22.11;48.48;76271.78;4985421;28;20026;-88
2024/04/02 07:15:30;;;;;;;0.20;0.20;;;;;;;21.12;50.27;76155.03;4970588;28;20030;-88
2024/04/02 07:17:56;;;;;;;0.10;0.10;;;;;;;21.22;47.25;76172.09;4976089;28;20241;-88
2024/04/02 07:20:23;;;;;;;0.20;0.20;;;;;;;21.36;45.90;76183.94;4993766;28;20061;-90
2024/04/02 07:22:48;;;;;;;0.10;0.10;;;;;;;19.80;49.29;76004.91;4975738;28;20031;-88
2024/04/02 07:25:14;;;;;;;0.20;0.20;;;;;;;19.66;50.43;75988.69;4975706;28;20034;-90
2024/04/02 07:27:40;;;;;;;0.10;0.10;;;;;;;21.64;46.60;76222.03;4975954;28;20018;-92
2024/04/02 07:30:07;;;;;;;0.10;0.10;;;;;;;22.40;43.97;76303.88;4976196;28;20038;-91
2024/04/02 07:32:33;;;;;;;0.20;0.20;;;;;;;21.59;44.45;76216.03;4990201;28;20029;-89
2024/04/02 07:34:58;;;;;;;0.20;0.20;;;;;;;20.73;45.62;76109.31;4976276;28;20019;-89
2024/04/02 07:40:50;;;;;;;0.20;0.20;;;;;;;19.92;48.22;76015.91;5002238;28;20049;-90
2024/04/02 07:46:27;;;;;;;0.20;0.20;;;;;;;20.21;47.42;76050.78;5019838;23;20047;-88
2024/04/02 07:48:52;;;;;;;0.20;0.20;;;;;;;20.64;46.87;76098.50;4972955;28;20379;-89
2024/04/02 07:51:17;;;;;;;0.20;0.20;;;;;;;20.10;46.29;76034.75;4976613;28;20402;-89
2024/04/02 07:53:44;;;;;;;0.20;0.20;;;;;;;21.65;44.24;76218.22;4976070;28;20030;-90
2024/04/02 07:56:09;;;;;;;0.20;0.20;;;;;;;22.61;42.04;76325.72;4975608;28;20038;-89
2024/04/02 07:58:36;;;;;;;0.20;0.20;;;;;;;21.64;43.35;76219.22;4975705;28;20034;-90
2024/04/02 08:01:02;;;;;;;0.20;0.20;;;;;;;21.80;43.59;76235.66;4975204;28;20031;-89
2024/04/02 08:03:27;;;;;;;0.10;0.10;;;;;;;20.48;45.09;76079.25;4975489;28;20117;-89
2024/04/02 08:15:39;;;;;;;0.20;0.20;;;;;;;19.37;46.09;75951.59;5034304;23;20121;-86
2024/04/02 08:18:09;;;;;;;0.20;0.20;;;;;;;20.81;43.60;76121.75;4988940;28;20057;-89
2024/04/02 08:20:34;;;;;;;0.20;0.20;;;;;;;21.70;41.81;76227.03;4975042;28;20109;-89
2024/04/02 08:23:00;;;;;;;0.20;0.20;;;;;;;22.62;40.54;76338.22;4975040;28;20018;-90
2024/04/02 08:25:26;;;;;;;0.20;0.20;;;;;;;23.10;39.60;76394.22;4977526;28;20037;-89
2024/04/02 08:27:51;;;;;;;0.20;0.20;;;;;;;22.57;39.28;76325.94;4978215;28;20022;-88
2024/04/02 08:30:17;;;;;;;0.20;0.20;;;;;;;23.01;39.01;76378.38;4978457;28;20118;-88
2024/04/02 08:32:43;;;;;;;0.10;0.10;;;;;;;22.00;39.74;76258.50;4978116;28;20030;-87
2024/04/02 08:35:09;;;;;;;0.10;0.10;;;;;;;22.55;39.35;76324.16;4978721;28;20569;-89
2024/04/02 08:37:35;;;;;;;0.20;0.20;;;;;;;22.96;38.76;76375.16;4978956;28;20382;-89
2024/04/02 08:40:01;;;;;;;0.15;0.15;;;;;;;22.62;39.75;76331.97;4980845;28;20026;-88
2024/04/02 08:42:27;;;;;;;0.20;0.20;;;;;;;22.63;38.54;76333.78;4979517;28;20022;-90
2024/04/02 08:44:54;;;;;;;0.10;0.10;;;;;;;22.41;38.98;76307.88;4980201;28;20030;-88
2024/04/02 08:47:24;;;;;;;0.10;0.10;;;;;;;22.75;38.17;76351.06;4981259;28;20027;-88
2024/04/02 08:49:51;;;;;;;0.10;0.10;;;;;;;23.24;37.40;76406.06;4981311;28;20030;-88
2024/04/02 08:52:17;;;;;;;0.20;0.20;;;;;;;23.36;36.51;76419.91;4978403;28;20089;-89
2024/04/02 08:54:42;;;;;;;0.20;0.20;;;;;;;23.06;38.72;76380.94;4963563;28;20039;-89
2024/04/02 08:57:08;;;;;;;0.20;0.20;;;;;;;22.89;39.40;76372.97;4959701;28;20015;-89
2024/04/02 08:59:37;;;;;;;0.20;0.20;;;;;;;23.06;39.69;76380.94;4959783;28;20501;-88
2024/04/02 09:02:04;;;;;;;0.20;0.20;;;;;;;22.09;41.84;76269.34;4960472;28;20039;-87
2024/04/02 09:04:32;;;;;;;0.10;0.10;;;;;;;22.37;41.71;76302.47;4962253;28;20153;-88
2024/04/02 09:06:58;;;;;;;0.10;0.10;;;;;;;22.82;41.55;76356.06;4961176;28;20027;-87
2024/04/02 09:09:24;;;;;;;0.10;0.10;;;;;;;23.21;40.35;76399.00;4960823;28;20034;-86
2024/04/02 09:11:50;;;;;;;0.10;0.10;;;;;;;21.60;42.88;76211.59;4960892;28;20054;-87
2024/04/02 09:14:17;;;;;;;0.20;0.20;;;;;;;20.97;44.75;76140.38;4957233;29;20106;-89
2024/04/02 09:16:43;;;;;;;0.20;0.20;;;;;;;21.20;43.75;76164.66;4957203;29;20019;-88
2024/04/02 09:19:08;;;;;;;0.10;0.10;;;;;;;21.27;42.83;76178.69;4958191;28;20050;-89
2024/04/02 09:21:33;;;;;;;0.10;0.10;;;;;;;20.94;42.25;76136.78;4958144;28;20023;-89
2024/04/02 09:23:59;;;;;;;0.10;0.10;;;;;;;21.90;39.08;76247.09;4951519;28;20043;-89
2024/04/02 09:26:24;;;;;;;0.20;0.20;;;;;;;23.05;37.60;76376.94;4953788;29;20070;-90
2024/04/02 09:28:53;;;;;;;0.10;0.10;;;;;;;22.03;39.16;76256.50;4955490;29;20377;-89
2024/04/02 09:31:18;;;;;;;0.10;0.10;;;;;;;20.96;40.58;76141.41;4955180;29;20070;-89
2024/04/02 09:45:49;;;;;;;0.20;0.20;;;;;;;21.37;39.65;76185.13;5001450;28;20092;-89
2024/04/02 09:48:21;;;;;;;0.20;0.20;;;;;;;21.44;39.75;76193.53;4989087;28;20120;-89
2024/04/02 10:23:43;;;;;;;0.20;0.20;;;;;;;21.79;39.91;76233.88;5071267;22;20136;-90
2024/04/02 10:26:12;;;;;;;0.20;0.20;;;;;;;22.61;37.50;76325.72;4997353;28;20117;-90
2024/04/02 10:28:38;;;;;;;0.20;0.20;;;;;;;23.09;36.67;76387.38;4997128;28;20010;-90
2024/04/02 10:31:17;;;;;;;0.20;0.20;;;;;;;22.98;35.93;76375.34;4996810;28;20018;-90
2024/04/02 10:33:43;;;;;;;0.20;0.20;;;;;;;22.69;36.77;76340.38;4991258;28;20117;-91
2024/04/02 10:36:11;;;;;;;0.10;0.10;;;;;;;22.66;37.47;76333.97;4985498;28;20091;-90
2024/04/02 10:38:36;;;;;;;0.20;0.20;;;;;;;22.73;36.85;76345.81;4977785;28;20027;-92
2024/04/02 10:41:03;;;;;;;0.10;0.10;;;;;;;22.94;38.12;76364.28;4972022;28;20030;-92
2024/04/02 10:43:28;;;;;;;0.10;0.10;;;;;;;22.62;39.26;76334.78;4974055;28;20170;-90
2024/04/02 10:45:55;;;;;;;0.17;0.17;;;;;;;21.56;41.48;76206.78;4976744;28;20113;-91
2024/04/02 10:52:30;;;;;;;0.10;0.10;;;;;;;21.94;42.04;76249.69;4998205;28;20108;-90
2024/04/02 10:54:59;;;;;;;0.10;0.10;;;;;;;20.71;44.02;76103.50;4995202;28;20140;-89
2024/04/02 11:01:42;;;;;;;0.10;0.10;;;;;;;20.62;45.17;76096.09;4998728;28;20060;-90
2024/04/02 11:19:22;;;;;;;0.10;0.10;;;;;;;21.67;42.85;76220.00;4957473;28;20059;-90
